Time;durP1;ratioP1;P1;durP2;ratioP2;P2;SDS_P1;SDS_P2;PMS_P1;PMS_P2;Temp;Humidity;BMP_temperature;BMP_pressure;BME280_temperature;BME280_humidity;BME280_pressure;Samples;Min_cycle;Max_cycle;Signal;HPM_P1;HPM_P2
2023/12/16 00:04:55;;;;;;;7.35;6.55;;;;;;;5.25;100.00;149988.81;13082672;22;20015;-85
2023/12/16 00:09:57;;;;;;;8.77;5.93;;;;;;;5.24;100.00;149987.53;13073873;22;20015;-84
2023/12/16 00:14:59;;;;;;;10.43;5.78;;;;;;;5.20;100.00;149977.22;13075146;22;20022;-86
2023/12/16 00:20:01;;;;;;;8.40;7.35;;;;;;;5.11;100.00;149952.81;13058964;22;20015;-84
2023/12/16 00:25:03;;;;;;;8.48;6.15;;;;;;;5.21;100.00;149978.50;13075152;22;20015;-84
2023/12/16 00:30:05;;;;;;;9.40;5.57;;;;;;;5.23;100.00;149984.97;13047737;22;20019;-84
2023/12/16 00:35:08;;;;;;;11.43;6.57;;;;;;;5.35;100.00;150014.50;13075558;22;20026;-84
2023/12/16 00:40:10;;;;;;;7.72;6.43;;;;;;;5.35;100.00;150013.22;13048956;22;20016;-84
2023/12/16 00:45:12;;;;;;;11.55;6.63;;;;;;;5.37;100.00;150019.69;13051487;22;20030;-83
2023/12/16 00:50:13;;;;;;;8.18;5.82;;;;;;;5.25;100.00;149990.09;13082146;22;20020;-83
2023/12/16 00:55:15;;;;;;;9.85;7.47;;;;;;;5.20;100.00;149977.22;13074777;22;20019;-83
2023/12/16 01:00:17;;;;;;;8.80;6.65;;;;;;;5.24;100.00;149986.25;13043216;22;20120;-85
2023/12/16 01:05:19;;;;;;;9.20;7.25;;;;;;;5.35;100.00;150013.22;13043367;22;20349;-85
2023/12/16 01:10:21;;;;;;;13.23;7.65;;;;;;;5.20;100.00;149977.22;13071297;22;20011;-85
2023/12/16 01:15:23;;;;;;;9.55;6.95;;;;;;;5.23;100.00;149983.69;13070454;22;20094;-84
2023/12/16 01:20:25;;;;;;;15.18;7.40;;;;;;;5.14;100.00;149961.81;13079015;22;20012;-82
2023/12/16 01:25:26;;;;;;;9.80;7.50;;;;;;;5.13;100.00;149959.22;13086809;22;20021;-84
2023/12/16 01:30:29;;;;;;;9.13;7.15;;;;;;;5.01;100.00;149929.69;13053250;22;20038;-86
2023/12/16 01:35:30;;;;;;;11.82;7.95;;;;;;;5.14;100.00;149961.81;13048235;22;20457;-82
2023/12/16 01:40:32;;;;;;;10.77;7.72;;;;;;;5.25;100.00;149988.81;13049871;22;20026;-85
2023/12/16 01:45:34;;;;;;;12.25;7.68;;;;;;;5.18;100.00;149970.78;13078329;22;20357;-82
2023/12/16 01:50:36;;;;;;;12.80;6.78;;;;;;;5.06;100.00;149941.25;13056329;22;20019;-83
2023/12/16 01:55:38;;;;;;;8.18;7.07;;;;;;;5.09;100.00;149947.66;13066340;22;20381;-84
2023/12/16 02:00:41;;;;;;;14.05;8.13;;;;;;;5.02;100.00;149930.97;13069081;22;20345;-83
2023/12/16 02:05:43;;;;;;;15.02;7.70;;;;;;;5.12;100.00;149956.66;13082277;22;20261;-84
2023/12/16 02:10:45;;;;;;;8.85;6.82;;;;;;;5.06;100.00;149941.25;13072786;22;20090;-83
2023/12/16 02:15:46;;;;;;;7.13;5.40;;;;;;;5.00;100.00;149925.78;13077898;22;20064;-84
2023/12/16 02:20:48;;;;;;;7.05;5.68;;;;;;;5.05;100.00;149939.97;13107950;22;20018;-85
2023/12/16 02:25:50;;;;;;;10.35;6.22;;;;;;;5.07;100.00;149943.81;13060867;22;20015;-84
2023/12/16 02:30:51;;;;;;;7.88;5.28;;;;;;;5.30;100.00;150001.66;13053121;22;20011;-83
2023/12/16 02:35:53;;;;;;;9.00;5.07;;;;;;;5.24;100.00;149986.25;13077185;22;20048;-85
2023/12/16 02:40:55;;;;;;;8.90;4.80;;;;;;;5.27;100.00;149993.97;13033210;22;20015;-85
2023/12/16 02:45:57;;;;;;;6.80;4.30;;;;;;;5.30;100.00;150001.66;13076548;22;20019;-84
2023/12/16 02:50:58;;;;;;;9.65;5.63;;;;;;;5.26;100.00;149991.38;13050521;22;20025;-86
2023/12/16 02:56:00;;;;;;;6.65;4.60;;;;;;;5.27;100.00;149995.25;13048951;22;20085;-83
2023/12/16 03:01:02;;;;;;;6.18;3.47;;;;;;;5.26;100.00;149991.38;13047044;22;20015;-84
2023/12/16 03:06:08;;;;;;;5.25;4.13;;;;;;;5.25;100.00;149988.81;13046160;22;20034;-83
2023/12/16 03:11:09;;;;;;;6.53;3.70;;;;;;;5.37;100.00;150019.69;13074663;22;20011;-82
2023/12/16 03:16:11;;;;;;;4.80;3.45;;;;;;;5.21;100.00;149979.78;13030030;22;20026;-83
2023/12/16 03:21:13;;;;;;;3.58;2.92;;;;;;;5.36;100.00;150015.78;13081332;22;20016;-85
2023/12/16 03:26:15;;;;;;;8.38;3.15;;;;;;;5.25;100.00;149988.81;13047247;22;20015;-84
2023/12/16 03:31:17;;;;;;;4.85;3.15;;;;;;;5.36;100.00;150017.13;13073285;22;20011;-84
2023/12/16 03:36:19;;;;;;;6.32;3.28;;;;;;;5.31;100.00;150004.22;13074716;22;20026;-84
2023/12/16 03:41:21;;;;;;;3.60;2.97;;;;;;;5.41;100.00;150029.97;13075226;22;20045;-84
2023/12/16 03:46:22;;;;;;;5.28;3.65;;;;;;;5.32;100.00;150006.81;13077038;22;20041;-85
2023/12/16 03:51:24;;;;;;;3.75;3.05;;;;;;;5.39;100.00;150023.50;13074958;22;20048;-85
2023/12/16 03:56:26;;;;;;;3.35;2.28;;;;;;;5.21;100.00;149978.50;13022072;22;20019;-83
2023/12/16 04:01:28;;;;;;;2.67;1.73;;;;;;;5.29;98.47;150000.38;13047130;22;20065;-83
2023/12/16 04:06:31;;;;;;;3.30;1.75;;;;;;;5.20;99.02;149975.94;13100989;22;20007;-83
2023/12/16 04:11:32;;;;;;;3.15;2.13;;;;;;;5.13;98.94;149957.94;13109242;22;20022;-85
2023/12/16 04:16:36;;;;;;;4.38;2.03;;;;;;;5.14;98.00;149960.53;13078937;22;20453;-84
2023/12/16 04:21:38;;;;;;;2.95;1.70;;;;;;;5.14;97.39;149961.81;13047768;22;20018;-84
2023/12/16 04:26:40;;;;;;;6.00;2.10;;;;;;;5.07;98.27;149945.09;13077089;22;20022;-84
2023/12/16 04:31:42;;;;;;;3.33;2.30;;;;;;;5.09;98.04;149947.66;13075061;22;20330;-84
2023/12/16 04:36:43;;;;;;;8.02;1.90;;;;;;;5.18;96.78;149970.78;13049581;22;20015;-84
2023/12/16 04:41:45;;;;;;;5.20;1.95;;;;;;;5.15;96.53;149963.09;13090153;22;20015;-83
2023/12/16 04:46:47;;;;;;;4.75;2.00;;;;;;;5.31;95.66;150004.22;13067916;22;20341;-83
2023/12/16 04:51:49;;;;;;;6.05;2.45;;;;;;;5.21;96.09;149978.50;13021713;22;20054;-83
2023/12/16 04:56:50;;;;;;;4.90;1.55;;;;;;;5.26;95.08;149991.38;13073409;22;20015;-83
2023/12/16 05:01:52;;;;;;;5.10;2.38;;;;;;;5.24;96.03;149987.53;13019535;22;20023;-84
2023/12/16 05:06:54;;;;;;;8.23;2.13;;;;;;;5.16;96.82;149965.66;13072684;22;20078;-85
2023/12/16 05:11:56;;;;;;;6.03;2.22;;;;;;;5.17;96.99;149969.50;13048467;22;20018;-84
2023/12/16 05:16:59;;;;;;;2.75;1.60;;;;;;;5.20;95.48;149975.94;13076201;22;20016;-84
2023/12/16 05:22:01;;;;;;;3.63;1.60;;;;;;;5.24;95.45;149987.53;13077034;22;20022;-84
2023/12/16 05:27:03;;;;;;;6.43;2.20;;;;;;;5.25;94.49;149988.81;13050376;22;20023;-84
2023/12/16 05:32:05;;;;;;;4.63;1.60;;;;;;;5.23;95.46;149984.97;13048762;22;20019;-84
2023/12/16 05:37:06;;;;;;;3.17;1.83;;;;;;;5.09;96.34;149947.66;13078378;22;20019;-83
2023/12/16 05:42:09;;;;;;;4.03;1.60;;;;;;;5.05;96.69;149939.97;13086471;22;20026;-84
2023/12/16 05:47:11;;;;;;;3.97;1.95;;;;;;;5.07;96.16;149945.09;13079093;22;20456;-84
2023/12/16 05:52:13;;;;;;;2.42;1.80;;;;;;;5.04;96.47;149936.06;13048831;22;20015;-83
2023/12/16 05:57:14;;;;;;;2.92;2.00;;;;;;;5.13;95.41;149957.94;13075750;22;20053;-84
2023/12/16 06:02:16;;;;;;;3.85;1.70;;;;;;;5.09;96.16;149947.66;13046624;22;20022;-83
2023/12/16 06:07:19;;;;;;;3.70;2.00;;;;;;;5.20;95.14;149977.22;13047586;22;20019;-82
2023/12/16 06:12:21;;;;;;;3.70;2.20;;;;;;;5.11;96.20;149952.81;13085484;22;20031;-83
2023/12/16 06:17:22;;;;;;;2.13;1.58;;;;;;;5.17;95.50;149968.22;13083283;22;20011;-82
2023/12/16 06:22:25;;;;;;;4.00;1.90;;;;;;;5.21;95.48;149978.50;13055819;22;20476;-84
2023/12/16 06:27:26;;;;;;;3.45;1.83;;;;;;;5.08;96.89;149946.38;13073942;22;20022;-83
2023/12/16 06:32:28;;;;;;;4.63;2.17;;;;;;;5.10;97.01;149951.53;13073901;22;20445;-83
2023/12/16 06:37:30;;;;;;;3.35;1.85;;;;;;;5.14;96.65;149960.53;13076384;22;20072;-83
2023/12/16 06:42:32;;;;;;;4.93;1.98;;;;;;;5.27;95.93;149993.97;13085338;22;20016;-83
2023/12/16 06:47:33;;;;;;;4.10;1.98;;;;;;;5.28;95.52;149997.81;13056836;22;20065;-83
2023/12/16 06:52:35;;;;;;;3.65;2.33;;;;;;;5.33;95.39;150009.38;13053081;22;20109;-82
2023/12/16 06:57:37;;;;;;;4.85;2.17;;;;;;;5.35;95.45;150013.22;13083121;22;20019;-83
2023/12/16 07:02:43;;;;;;;3.88;2.28;;;;;;;5.40;95.30;150027.41;13063441;22;20062;-83
2023/12/16 07:07:45;;;;;;;2.30;1.83;;;;;;;5.36;97.22;150017.13;13090211;22;20023;-84
2023/12/16 07:12:47;;;;;;;3.20;2.35;;;;;;;5.42;97.33;150031.25;13092645;22;20353;-83
2023/12/16 07:17:49;;;;;;;3.30;1.75;;;;;;;5.49;97.57;150049.22;13092284;22;20015;-80
2023/12/16 07:22:51;;;;;;;6.43;2.40;;;;;;;5.26;100.00;149991.38;13080413;22;20070;-80
2023/12/16 07:27:53;;;;;;;3.78;2.20;;;;;;;5.29;99.88;150000.38;13051841;22;20019;-80
2023/12/16 07:32:55;;;;;;;6.82;2.20;;;;;;;5.43;98.23;150035.09;13071475;22;20019;-80
2023/12/16 07:37:57;;;;;;;7.15;2.70;;;;;;;5.36;99.52;150017.13;13067761;22;20025;-80
2023/12/16 07:42:59;;;;;;;5.45;2.97;;;;;;;5.53;97.06;150059.50;13067370;22;20015;-79
2023/12/16 07:48:01;;;;;;;5.82;2.28;;;;;;;5.49;97.99;150049.22;13085067;22;20026;-80
2023/12/16 07:53:03;;;;;;;5.55;2.50;;;;;;;5.50;97.34;150053.13;13089493;22;20521;-81
2023/12/16 07:58:04;;;;;;;5.15;2.53;;;;;;;5.48;98.25;150047.94;13088616;22;20015;-80
2023/12/16 08:03:07;;;;;;;5.00;2.95;;;;;;;5.50;96.68;150053.13;13045952;22;20016;-81
2023/12/16 08:08:08;;;;;;;4.35;2.50;;;;;;;5.65;96.23;150089.13;13068300;22;20076;-82
2023/12/16 08:13:10;;;;;;;4.40;2.88;;;;;;;5.75;94.20;150114.81;13072397;22;20027;-80
2023/12/16 08:18:12;;;;;;;7.22;2.30;;;;;;;5.74;94.86;150112.25;13049878;22;20011;-80
2023/12/16 08:23:16;;;;;;;4.72;3.00;;;;;;;5.70;95.16;150103.25;13104188;22;20022;-81
2023/12/16 08:28:19;;;;;;;5.97;2.63;;;;;;;5.74;96.23;150113.53;13106021;22;20003;-80
2023/12/16 08:33:21;;;;;;;4.30;3.13;;;;;;;5.77;94.19;150121.28;13057388;22;19999;-80
2023/12/16 08:38:23;;;;;;;4.72;2.42;;;;;;;5.95;93.47;150165.06;13082249;22;20003;-80
2023/12/16 08:43:25;;;;;;;4.00;2.15;;;;;;;5.87;93.63;150144.41;13080955;22;20056;-80
2023/12/16 08:48:27;;;;;;;4.15;2.42;;;;;;;5.85;93.82;150139.31;13056210;22;20045;-80
2023/12/16 08:53:29;;;;;;;4.10;2.13;;;;;;;5.98;91.07;150174.09;13080455;22;20015;-79
2023/12/16 08:58:31;;;;;;;7.85;3.50;;;;;;;5.84;93.75;150137.97;13055725;22;20045;-81
2023/12/16 09:03:33;;;;;;;4.25;2.80;;;;;;;6.02;92.64;150184.38;13080838;22;20015;-82
2023/12/16 09:08:35;;;;;;;4.50;2.47;;;;;;;5.90;93.29;150152.16;13109830;22;20019;-81
2023/12/16 09:13:37;;;;;;;4.00;2.75;;;;;;;5.96;93.09;150168.91;13057216;22;20020;-80
2023/12/16 09:18:39;;;;;;;3.13;2.67;;;;;;;6.14;90.40;150213.94;13082841;22;20009;-82
2023/12/16 09:23:41;;;;;;;4.03;1.85;;;;;;;6.23;89.14;150235.81;13083888;22;19999;-79
2023/12/16 09:28:44;;;;;;;4.80;2.75;;;;;;;6.25;89.48;150241.00;13111098;22;19999;-79
2023/12/16 09:33:46;;;;;;;4.57;2.20;;;;;;;6.41;86.39;150280.84;13028716;22;20281;-81
2023/12/16 09:38:48;;;;;;;4.10;2.40;;;;;;;6.21;89.61;150231.97;13079572;22;20019;-81
2023/12/16 09:43:52;;;;;;;4.03;2.70;;;;;;;6.33;88.04;150261.59;13089652;22;19996;-80
2023/12/16 09:48:54;;;;;;;5.30;2.72;;;;;;;6.45;86.44;150292.44;13089090;22;20018;-80
2023/12/16 09:53:56;;;;;;;4.25;2.58;;;;;;;6.42;88.45;150283.41;13079861;22;20042;-81
2023/12/16 09:58:59;;;;;;;6.80;3.60;;;;;;;6.44;87.00;150289.88;13077620;22;20015;-79
2023/12/16 10:04:01;;;;;;;5.55;2.60;;;;;;;6.44;87.04;150289.88;13055403;22;20457;-80
2023/12/16 10:09:04;;;;;;;3.65;2.40;;;;;;;6.45;87.72;150292.44;13080376;22;20011;-81
2023/12/16 10:14:06;;;;;;;2.83;2.15;;;;;;;6.55;86.03;150316.88;13090351;22;20023;-80
2023/12/16 10:19:10;;;;;;;4.93;2.85;;;;;;;6.57;86.79;150323.34;13082935;22;20011;-81
2023/12/16 10:24:14;;;;;;;5.28;3.00;;;;;;;6.59;85.10;150327.19;13054831;22;20036;-81
2023/12/16 10:29:18;;;;;;;4.00;2.85;;;;;;;6.66;84.33;150343.94;13082184;22;20015;-82
2023/12/16 10:34:20;;;;;;;4.45;2.40;;;;;;;6.73;83.69;150363.25;13083795;22;20023;-81
2023/12/16 10:39:22;;;;;;;3.85;2.28;;;;;;;6.72;84.77;150360.66;13054176;22;20015;-82
2023/12/16 10:44:23;;;;;;;3.63;2.30;;;;;;;6.73;84.75;150361.94;13046727;22;20038;-81
2023/12/16 10:49:34;;;;;;;5.88;2.55;;;;;;;6.73;85.29;150363.25;13089962;22;20012;-81
2023/12/16 10:54:39;;;;;;;3.58;1.95;;;;;;;6.79;85.43;150377.41;13061525;22;20038;-83
2023/12/16 10:59:44;;;;;;;3.17;2.25;;;;;;;6.88;83.92;150400.59;13054551;22;20011;-81
2023/12/16 11:04:53;;;;;;;5.68;2.95;;;;;;;6.98;83.11;150425.03;13098511;22;20034;-81
2023/12/16 11:09:56;;;;;;;5.13;1.92;;;;;;;7.20;79.58;150480.41;13092641;22;19999;-80
2023/12/16 11:14:58;;;;;;;4.97;2.53;;;;;;;7.18;77.55;150476.56;13095846;22;20019;-79
2023/12/16 11:20:06;;;;;;;6.07;2.17;;;;;;;7.34;77.76;150516.44;13093126;22;20015;-82
2023/12/16 11:25:15;;;;;;;5.10;3.22;;;;;;;7.29;77.22;150504.88;13069070;22;20035;-80
2023/12/16 11:30:21;;;;;;;9.82;2.92;;;;;;;8.50;69.99;150810.31;13067818;22;20019;-81
2023/12/16 11:35:35;;;;;;;5.53;3.13;;;;;;;8.70;69.37;150859.28;13039296;22;20349;-79
2023/12/16 11:40:43;;;;;;;2.50;1.60;;;;;;;9.57;65.33;151079.84;13040051;22;20352;-81
2023/12/16 11:45:47;;;;;;;22.35;12.60;;;;;;;9.33;66.16;151019.19;13045741;22;20102;-81
2023/12/16 11:50:49;;;;;;;4.70;2.05;;;;;;;8.67;69.00;150851.53;13043380;22;20015;-81
2023/12/16 11:55:51;;;;;;;7.20;2.95;;;;;;;8.83;69.13;150894.09;13071688;22;20038;-81
2023/12/16 12:00:52;;;;;;;4.05;2.95;;;;;;;8.36;69.61;150774.16;13042047;22;20015;-81
2023/12/16 12:05:55;;;;;;;6.63;2.08;;;;;;;7.99;73.96;150681.38;13071223;22;20015;-82
2023/12/16 12:10:57;;;;;;;3.92;2.50;;;;;;;7.86;71.31;150646.59;13069991;22;20015;-82
2023/12/16 12:15:59;;;;;;;3.58;2.10;;;;;;;7.83;71.87;150640.13;13071088;22;20015;-80
2023/12/16 12:21:01;;;;;;;5.78;1.58;;;;;;;7.74;72.79;150616.94;13068499;22;20015;-79
2023/12/16 12:26:04;;;;;;;3.42;2.05;;;;;;;7.59;74.71;150579.59;13035740;22;20015;-80
2023/12/16 12:31:07;;;;;;;5.10;1.70;;;;;;;7.64;73.53;150592.47;13077796;22;20018;-81
2023/12/16 12:36:09;;;;;;;6.60;1.98;;;;;;;7.69;73.15;150604.06;13082747;22;19999;-81
2023/12/16 12:41:15;;;;;;;4.35;2.22;;;;;;;7.31;74.55;150508.75;13110115;22;20003;-80
2023/12/16 12:46:17;;;;;;;2.83;1.95;;;;;;;7.38;74.44;150525.47;13106930;22;20003;-82
2023/12/16 12:51:18;;;;;;;3.90;1.52;;;;;;;7.46;72.50;150546.09;13095744;22;20008;-83
2023/12/16 12:56:20;;;;;;;9.45;1.85;;;;;;;7.34;73.52;150516.44;13078627;22;20020;-82
2023/12/16 13:01:22;;;;;;;2.50;1.50;;;;;;;7.17;75.20;150474.00;13050656;22;20349;-82
2023/12/16 13:06:24;;;;;;;4.65;2.25;;;;;;;7.22;75.55;150486.88;13050604;22;20023;-83
2023/12/16 13:11:26;;;;;;;4.85;2.20;;;;;;;7.31;73.84;150508.75;13046919;22;20019;-82
2023/12/16 13:16:28;;;;;;;3.97;1.65;;;;;;;7.26;74.17;150497.19;13080216;22;20022;-82
2023/12/16 13:21:29;;;;;;;3.15;1.88;;;;;;;7.21;74.54;150482.97;13074783;22;20011;-83
2023/12/16 13:26:31;;;;;;;4.15;2.08;;;;;;;7.17;74.27;150474.00;13024933;22;20083;-83
2023/12/16 13:31:33;;;;;;;4.57;1.65;;;;;;;7.15;74.32;150468.81;13057338;22;20085;-83
2023/12/16 13:36:35;;;;;;;4.35;2.42;;;;;;;6.95;75.21;150418.63;13079449;22;20068;-81
2023/12/16 13:41:51;;;;;;;;;;;;;;;7.02;74.88;150435.34;13079313;22;20046;-83
2023/12/16 13:46:53;;;;;;;4.13;2.00;;;;;;;6.96;75.53;150421.19;13053686;22;19993;-82
2023/12/16 13:51:55;;;;;;;3.13;1.98;;;;;;;6.82;76.17;150385.16;13051175;22;20019;-83
2023/12/16 13:56:57;;;;;;;4.88;2.17;;;;;;;6.90;76.07;150404.44;13044735;22;20026;-82
2023/12/16 14:02:00;;;;;;;4.75;2.42;;;;;;;6.93;75.77;150413.44;13100684;22;20022;-82
2023/12/16 14:07:01;;;;;;;1.95;1.73;;;;;;;6.83;77.65;150387.72;13101050;22;20015;-80
2023/12/16 14:12:03;;;;;;;3.78;2.25;;;;;;;6.74;77.10;150365.81;13071849;22;20015;-80
2023/12/16 14:17:05;;;;;;;5.25;1.92;;;;;;;6.78;76.55;150374.84;13099407;22;20011;-79
2023/12/16 14:22:08;;;;;;;3.22;1.52;;;;;;;6.65;77.39;150341.38;13074624;22;20353;-79
2023/12/16 14:27:09;;;;;;;3.53;1.95;;;;;;;6.56;77.61;150320.78;13057724;22;20019;-82
2023/12/16 14:32:11;;;;;;;4.85;1.95;;;;;;;6.48;78.37;150298.91;13026913;22;20019;-81
2023/12/16 14:37:13;;;;;;;5.32;2.47;;;;;;;6.46;77.70;150295.03;13027181;22;20019;-80
2023/12/16 14:42:15;;;;;;;5.20;1.80;;;;;;;6.40;77.68;150279.56;13052249;22;20015;-81
2023/12/16 14:47:17;;;;;;;6.45;2.42;;;;;;;6.34;77.57;150264.16;13056943;22;20091;-83
2023/12/16 14:52:18;;;;;;;4.28;1.63;;;;;;;6.14;79.21;150213.94;13055941;22;20520;-82
2023/12/16 14:57:20;;;;;;;4.45;1.90;;;;;;;6.08;79.46;150198.53;13054114;22;20022;-82
2023/12/16 15:02:22;;;;;;;3.60;1.40;;;;;;;6.17;78.56;150220.41;13080913;22;20146;-82
2023/12/16 15:07:24;;;;;;;3.90;1.90;;;;;;;6.00;79.80;150179.22;13078810;22;20019;-80
2023/12/16 15:12:25;;;;;;;4.85;1.70;;;;;;;5.93;80.69;150161.22;13078125;22;20019;-81
2023/12/16 15:17:27;;;;;;;2.42;1.35;;;;;;;5.96;80.26;150167.63;13077176;22;20333;-81
2023/12/16 15:22:29;;;;;;;8.50;2.10;;;;;;;6.05;79.80;150192.06;13077444;22;20016;-80
2023/12/16 15:27:31;;;;;;;4.45;1.95;;;;;;;6.10;79.70;150203.63;13076430;22;20015;-80
2023/12/16 15:32:32;;;;;;;4.75;1.60;;;;;;;6.13;79.89;150210.09;13050440;22;19999;-81
2023/12/16 15:37:34;;;;;;;4.55;2.40;;;;;;;6.17;79.72;150220.41;13094903;22;20012;-83
2023/12/16 15:42:36;;;;;;;4.53;2.30;;;;;;;6.08;80.92;150198.53;13091965;22;20008;-82
2023/12/16 15:47:38;;;;;;;5.90;2.53;;;;;;;6.28;79.74;150248.69;13082944;22;20065;-82
2023/12/16 15:52:41;;;;;;;13.95;3.05;;;;;;;6.27;79.80;150247.41;13077216;22;20015;-82
2023/12/16 15:57:42;;;;;;;4.60;2.65;;;;;;;6.29;80.12;150252.56;13050430;22;20019;-82
2023/12/16 16:02:47;;;;;;;7.30;2.70;;;;;;;6.19;81.21;150226.81;13078638;22;20022;-80
2023/12/16 16:07:49;;;;;;;5.85;3.17;;;;;;;6.40;79.70;150278.28;13072180;22;20038;-80
2023/12/16 16:12:52;;;;;;;4.63;2.53;;;;;;;6.25;80.61;150242.28;13044119;22;20015;-80
2023/12/16 16:17:54;;;;;;;4.03;2.25;;;;;;;6.37;80.33;150270.56;13043600;22;20043;-80
2023/12/16 16:22:56;;;;;;;4.15;3.05;;;;;;;6.34;80.48;150264.16;13069217;22;20030;-79
2023/12/16 16:28:00;;;;;;;6.82;3.33;;;;;;;6.29;80.83;150252.56;13097578;22;20031;-80
2023/12/16 16:33:01;;;;;;;4.35;2.10;;;;;;;6.36;80.48;150269.28;13109925;22;20015;-80
2023/12/16 16:38:03;;;;;;;5.63;2.40;;;;;;;6.35;80.17;150266.72;13110993;22;20012;-80
2023/12/16 16:43:05;;;;;;;4.18;2.45;;;;;;;6.42;79.74;150283.41;13111225;22;20004;-79
2023/12/16 16:48:07;;;;;;;6.18;2.45;;;;;;;6.40;79.83;150279.56;13110939;22;20015;-80
2023/12/16 16:53:09;;;;;;;8.95;3.78;;;;;;;6.53;78.73;150311.75;13111063;22;20090;-81
2023/12/16 16:58:11;;;;;;;4.20;2.17;;;;;;;6.52;79.25;150309.19;13111065;22;20288;-80
2023/12/16 17:03:13;;;;;;;6.22;2.63;;;;;;;6.50;79.36;150304.03;13110936;22;20051;-80
2023/12/16 17:08:14;;;;;;;4.78;2.03;;;;;;;6.56;78.84;150319.50;13113881;22;20019;-80
2023/12/16 17:13:16;;;;;;;4.45;2.17;;;;;;;6.56;79.42;150319.50;13113846;22;20019;-81
2023/12/16 17:18:18;;;;;;;5.88;2.50;;;;;;;6.60;79.93;150328.47;13114585;22;20018;-81
2023/12/16 17:23:19;;;;;;;6.65;2.13;;;;;;;6.62;80.14;150334.91;13114453;22;20006;-81
2023/12/16 17:28:21;;;;;;;7.00;3.28;;;;;;;6.62;80.10;150333.63;13087821;22;20019;-80
2023/12/16 17:33:25;;;;;;;22.83;11.50;;;;;;;6.70;79.81;150354.25;13062957;22;20037;-81
2023/12/16 17:38:27;;;;;;;4.07;3.08;;;;;;;6.46;81.88;150295.03;13114472;22;19999;-81
2023/12/16 17:43:29;;;;;;;4.45;2.70;;;;;;;6.49;81.84;150302.75;13064978;22;20083;-81
2023/12/16 17:48:30;;;;;;;3.75;1.67;;;;;;;6.51;82.08;150307.91;13101089;22;20079;-81
2023/12/16 17:53:32;;;;;;;5.32;3.38;;;;;;;6.50;82.34;150305.31;13027816;22;20068;-81
2023/12/16 17:58:36;;;;;;;8.88;1.83;;;;;;;6.55;81.47;150318.22;13081246;22;20019;-80
2023/12/16 18:03:38;;;;;;;5.40;2.20;;;;;;;6.56;82.00;150319.50;13049334;22;20046;-80
2023/12/16 18:08:40;;;;;;;5.30;1.88;;;;;;;6.59;81.52;150327.19;13071773;22;20086;-81
2023/12/16 18:13:43;;;;;;;2.72;1.35;;;;;;;6.68;81.09;150349.06;13071131;22;20035;-80
2023/12/16 18:18:45;;;;;;;4.68;1.77;;;;;;;6.72;80.25;150359.38;13061671;22;20023;-81
2023/12/16 18:23:47;;;;;;;4.85;1.63;;;;;;;6.74;80.06;150364.53;13046341;22;20011;-82
2023/12/16 18:28:48;;;;;;;2.70;1.40;;;;;;;6.75;80.37;150368.38;13065597;22;20036;-82
2023/12/16 18:33:50;;;;;;;4.22;1.77;;;;;;;6.70;80.88;150354.25;13090428;22;20015;-81
2023/12/16 18:38:52;;;;;;;5.22;2.05;;;;;;;6.72;80.86;150359.38;13072896;22;20426;-82
2023/12/16 18:43:54;;;;;;;5.60;2.05;;;;;;;6.70;81.10;150354.25;13045526;22;20022;-82
2023/12/16 18:48:56;;;;;;;3.30;1.40;;;;;;;6.70;81.55;150354.25;13024180;22;20019;-82
2023/12/16 18:53:58;;;;;;;2.70;1.40;;;;;;;6.67;82.04;150346.50;13077636;22;20015;-81
2023/12/16 18:59:00;;;;;;;3.17;1.50;;;;;;;6.78;81.46;150374.84;13074477;22;20341;-81
2023/12/16 19:04:02;;;;;;;3.47;1.50;;;;;;;6.86;81.14;150394.13;13024178;22;20027;-81
2023/12/16 19:09:03;;;;;;;5.63;1.50;;;;;;;6.79;82.17;150378.69;13049221;22;20026;-82
2023/12/16 19:14:05;;;;;;;4.63;2.00;;;;;;;6.68;82.76;150350.34;13072663;22;20011;-81
2023/12/16 19:19:07;;;;;;;3.80;1.70;;;;;;;6.66;83.74;150343.94;13071444;22;20091;-84
2023/12/16 19:24:12;;;;;;;4.05;1.55;;;;;;;6.77;83.13;150372.22;13085578;22;20034;-82
2023/12/16 19:29:14;;;;;;;5.72;2.92;;;;;;;6.70;84.27;150354.25;13089840;22;20026;-83
2023/12/16 19:34:15;;;;;;;5.32;1.80;;;;;;;6.78;84.42;150374.84;13087295;22;20022;-83
2023/12/16 19:39:25;;;;;;;5.32;1.90;;;;;;;6.80;84.44;150381.25;13084852;22;20044;-85
2023/12/16 19:44:28;;;;;;;6.00;2.00;;;;;;;6.80;85.58;150381.25;13061139;22;20015;-83
2023/12/16 19:49:30;;;;;;;3.70;1.88;;;;;;;6.82;86.00;150386.44;13058747;22;20019;-84
2023/12/16 19:54:32;;;;;;;5.28;1.92;;;;;;;6.91;86.20;150407.03;13088695;22;20010;-80
2023/12/16 19:59:35;;;;;;;7.22;2.97;;;;;;;6.87;87.10;150398.03;13063068;22;20035;-83
2023/12/16 20:04:39;;;;;;;4.05;1.90;;;;;;;6.89;86.99;150403.16;13083215;22;20437;-83
2023/12/16 20:09:41;;;;;;;4.57;1.90;;;;;;;6.90;87.21;150405.72;13083760;22;20037;-85
2023/12/16 20:14:43;;;;;;;4.60;1.70;;;;;;;6.95;86.75;150418.63;13057825;22;20026;-84
2023/12/16 20:19:46;;;;;;;4.07;2.20;;;;;;;6.97;87.02;150423.75;13089387;22;20026;-82
2023/12/16 20:24:48;;;;;;;7.70;2.40;;;;;;;6.91;87.71;150407.03;13046440;22;20019;-83
2023/12/16 20:29:50;;;;;;;4.93;2.03;;;;;;;6.95;87.56;150418.63;13079235;22;20094;-82
2023/12/16 20:34:52;;;;;;;3.10;2.40;;;;;;;6.80;88.46;150379.97;13096001;22;20019;-83
2023/12/16 20:45:14;;;;;;;4.32;1.65;;;;;;;6.91;87.20;150408.31;13057156;22;20025;-83
2023/12/16 20:50:17;;;;;;;10.27;2.13;;;;;;;6.87;86.97;150398.03;13087789;22;20018;-84
2023/12/16 20:55:21;;;;;;;4.13;2.20;;;;;;;6.81;87.88;150382.53;13062312;22;20023;-83
2023/12/16 21:00:24;;;;;;;3.70;1.73;;;;;;;6.84;87.48;150390.28;13089809;22;20067;-85
2023/12/16 21:05:27;;;;;;;7.93;2.10;;;;;;;6.64;89.11;150338.75;13096782;22;20082;-83
2023/12/16 21:10:28;;;;;;;6.68;4.20;;;;;;;6.82;88.13;150386.44;13080743;22;20430;-83
2023/12/16 21:15:30;;;;;;;2.25;1.80;;;;;;;6.82;88.10;150386.44;13069010;22;20023;-83
2023/12/16 21:20:32;;;;;;;3.88;2.08;;;;;;;6.83;88.19;150389.00;13063485;22;20022;-82
2023/12/16 21:25:33;;;;;;;7.10;2.63;;;;;;;6.86;88.40;150395.41;13084419;22;20022;-84
2023/12/16 21:30:35;;;;;;;2.97;1.80;;;;;;;6.82;89.01;150386.44;13084259;22;20441;-84
2023/12/16 21:35:37;;;;;;;4.13;1.90;;;;;;;6.78;89.77;150376.13;13083309;22;20046;-86
2023/12/16 21:40:39;;;;;;;2.58;1.75;;;;;;;6.66;91.47;150345.22;13056839;22;20015;-85
2023/12/16 21:45:41;;;;;;;3.83;1.90;;;;;;;6.80;90.60;150379.97;13081198;22;20349;-86
2023/12/16 21:50:42;;;;;;;6.82;1.90;;;;;;;6.81;91.11;150382.53;13049973;22;20011;-84
2023/12/16 21:55:44;;;;;;;3.25;1.92;;;;;;;6.89;90.60;150403.16;13061087;22;20022;-84
2023/12/16 22:00:46;;;;;;;6.53;2.60;;;;;;;6.86;91.20;150395.41;13047962;22;20019;-84
2023/12/16 22:05:47;;;;;;;5.15;2.45;;;;;;;6.93;91.45;150412.16;13088128;22;20004;-82
2023/12/16 22:10:49;;;;;;;5.05;2.63;;;;;;;6.89;91.07;150403.16;13077396;22;20023;-85
2023/12/16 22:15:51;;;;;;;3.08;1.92;;;;;;;6.71;93.03;150358.09;13094961;22;20019;-85
2023/12/16 22:20:52;;;;;;;1.80;1.60;;;;;;;6.92;90.85;150410.88;13045149;22;20011;-84
2023/12/16 22:25:55;;;;;;;4.65;2.38;;;;;;;6.85;91.71;150391.56;13046524;22;20453;-84
2023/12/16 22:30:56;;;;;;;5.88;1.88;;;;;;;6.76;93.09;150369.66;13047387;22;20018;-85
2023/12/16 22:35:58;;;;;;;3.67;1.90;;;;;;;6.81;91.97;150382.53;13075549;22;20019;-84
2023/12/16 22:41:00;;;;;;;4.10;1.92;;;;;;;6.82;91.60;150386.44;13078557;22;20083;-83
2023/12/16 22:46:02;;;;;;;2.58;1.58;;;;;;;6.97;90.94;150422.47;13078530;22;20053;-83
2023/12/16 22:51:04;;;;;;;4.30;1.63;;;;;;;6.77;92.93;150373.56;13076643;22;20067;-83
2023/12/16 22:56:06;;;;;;;5.78;2.13;;;;;;;6.81;92.37;150382.53;13048606;22;20019;-83
2023/12/16 23:01:08;;;;;;;3.42;2.10;;;;;;;6.68;93.32;150350.34;13085922;22;19999;-83
2023/12/16 23:06:10;;;;;;;1.77;1.50;;;;;;;6.82;91.84;150385.16;13078137;22;20015;-83
2023/12/16 23:11:12;;;;;;;2.70;1.58;;;;;;;6.81;91.83;150382.53;13078999;22;20060;-84
2023/12/16 23:16:14;;;;;;;4.30;1.88;;;;;;;6.72;92.37;150360.66;13079318;22;20346;-84
2023/12/16 23:21:16;;;;;;;2.88;1.52;;;;;;;6.73;92.10;150361.94;13075267;22;20392;-83
2023/12/16 23:26:17;;;;;;;2.67;1.88;;;;;;;6.80;91.75;150381.25;13072816;22;20043;-84
2023/12/16 23:31:19;;;;;;;2.83;1.80;;;;;;;6.67;93.01;150347.78;13073684;22;20020;-83